ePrivacy and GPDR Cookie Consent by Cookie Consent
EmailTwitter


Surface observations / Quebec / CYUL (71627)

Regions: Quebec | Canada | USA | Europe | France | UK | Elsewhere
Station
Display
Info & Location for CYUL (71627) | Help decoding METAR

Weather Conditions observed on 2022/01/17 at 23:17 UTC at MONTREAL INTL A, QB (CYUL)

Sky conditions: overcast.

Obstruction(s) to Vision: light snow.

Temperature: -4.0 Celsius.

Dewpoint: -5.0 Celsius.

Relative Humidity: 93%

Windchill Factor -9.

Winds: West at 13 km/h or 7 knots.

Mean Sea level Pressure: 98.45 kilopascals.

Altimeter Setting (QNH): 98.41 kilopascals or 29.06 inches of mercury.

Horizontal visibility: 8.00 statute miles or 12.80 kilometers.

Height of the Ceiling: 701 metres ( 2300 feet ).

Coded METAR:

CYUL 172317Z 27007KT 8SM -SN FEW012 SCT018 OVC023 M04/M05 A2906 RMK SF1SC2SC5

PRESRR SLP845=